createdAt,value
2023-01-27T00:04:29.420Z,3.28
2023-01-27T00:09:35.621Z,3.10
2023-01-27T00:14:41.683Z,2.90
2023-01-27T00:19:47.814Z,3.31
2023-01-27T00:24:53.921Z,2.50
2023-01-27T00:30:00.156Z,3.05
2023-01-27T00:35:06.267Z,2.42
2023-01-27T00:40:13.153Z,2.47
2023-01-27T00:45:18.414Z,2.56
2023-01-27T00:50:24.578Z,2.76
2023-01-27T00:55:30.700Z,2.46
2023-01-27T01:00:37.002Z,2.52
2023-01-27T01:05:43.164Z,2.62
2023-01-27T01:10:49.351Z,2.47
2023-01-27T01:15:55.494Z,2.07
2023-01-27T01:21:01.646Z,2.24
2023-01-27T01:26:07.713Z,2.54
2023-01-27T01:31:13.994Z,2.15
2023-01-27T01:36:20.015Z,2.07
2023-01-27T01:41:26.264Z,2.38
2023-01-27T01:46:32.492Z,1.93
2023-01-27T01:51:38.749Z,1.81
2023-01-27T01:56:44.814Z,1.83
2023-01-27T02:01:51.307Z,1.78
2023-01-27T02:06:57.438Z,2.13
2023-01-27T02:12:03.707Z,2.02
2023-01-27T02:17:09.776Z,3.70
2023-01-27T02:22:15.962Z,2.28
2023-01-27T02:27:22.042Z,3.42
2023-01-27T02:32:28.308Z,2.17
2023-01-27T02:37:34.579Z,2.15
2023-01-27T02:42:40.925Z,2.03
2023-01-27T02:47:47.006Z,1.84
2023-01-27T02:52:53.276Z,1.84
2023-01-27T02:57:59.390Z,1.85
2023-01-27T03:03:05.794Z,3.42
2023-01-27T03:08:11.871Z,1.99
2023-01-27T03:13:18.060Z,1.66
2023-01-27T03:18:24.646Z,1.67
2023-01-27T03:23:30.950Z,1.68
2023-01-27T03:28:37.075Z,1.99
2023-01-27T03:33:43.257Z,1.76
2023-01-27T03:38:49.542Z,1.85
2023-01-27T03:43:55.920Z,1.66
2023-01-27T03:49:02.020Z,2.86
2023-01-27T03:54:08.213Z,1.72
2023-01-27T03:59:14.278Z,1.58
2023-01-27T04:04:20.580Z,1.79
2023-01-27T04:09:27.086Z,1.46
2023-01-27T04:14:33.365Z,2.47
2023-01-27T04:19:39.662Z,1.99
2023-01-27T04:24:45.972Z,1.86
2023-01-27T04:29:52.126Z,2.46
2023-01-27T04:34:58.293Z,2.04
2023-01-27T04:40:04.364Z,1.97
2023-01-27T04:45:10.804Z,1.87
2023-01-27T04:50:16.801Z,1.94
2023-01-27T04:55:24.467Z,2.44
2023-01-27T05:00:28.749Z,2.25
2023-01-27T05:05:34.939Z,3.03
2023-01-27T05:10:41.012Z,2.99
2023-01-27T05:15:47.225Z,2.51
2023-01-27T05:20:53.300Z,2.34
2023-01-27T05:25:59.514Z,2.50
2023-01-27T05:31:05.720Z,2.51
2023-01-27T05:36:11.919Z,2.56
2023-01-27T05:41:18.069Z,2.56
2023-01-27T05:46:24.387Z,2.76
2023-01-27T05:51:30.541Z,2.88
2023-01-27T05:56:36.828Z,2.76
2023-01-27T06:01:42.925Z,2.97
2023-01-27T06:06:49.869Z,3.10
2023-01-27T06:11:55.997Z,2.99
2023-01-27T06:17:02.248Z,3.19
2023-01-27T06:22:08.347Z,3.04
2023-01-27T06:27:14.531Z,3.16
2023-01-27T06:32:20.677Z,3.48
2023-01-27T06:37:26.853Z,3.58
2023-01-27T06:42:32.905Z,3.62
2023-01-27T06:47:39.110Z,3.47
2023-01-27T06:52:45.198Z,3.81
2023-01-27T06:57:51.627Z,3.78
2023-01-27T07:02:57.830Z,3.47
2023-01-27T07:08:03.955Z,3.70
2023-01-27T07:13:10.035Z,3.44
2023-01-27T07:18:16.262Z,3.39
2023-01-27T07:23:22.343Z,3.31
2023-01-27T07:28:28.642Z,3.78
2023-01-27T07:33:34.750Z,3.24
2023-01-27T07:38:40.978Z,3.80
2023-01-27T07:43:47.066Z,3.27
2023-01-27T07:48:53.230Z,3.27
2023-01-27T07:54:01.981Z,3.43
2023-01-27T07:59:05.101Z,3.83
2023-01-27T08:04:11.201Z,2.98
2023-01-27T08:09:17.424Z,3.33
2023-01-27T08:14:23.561Z,3.31
2023-01-27T08:19:29.810Z,3.30
2023-01-27T08:24:35.872Z,2.94
2023-01-27T08:29:42.861Z,2.95
2023-01-27T08:34:48.952Z,2.90
2023-01-27T08:39:55.259Z,3.30
2023-01-27T08:45:01.321Z,3.21
2023-01-27T08:50:07.505Z,2.91
2023-01-27T08:55:13.690Z,2.82
2023-01-27T09:00:19.862Z,2.73
2023-01-27T09:05:25.929Z,2.44
2023-01-27T09:10:32.084Z,2.34
2023-01-27T09:15:38.223Z,2.58
2023-01-27T09:20:44.754Z,2.38
2023-01-27T09:25:50.807Z,1.94
2023-01-27T09:30:57.014Z,1.97
2023-01-27T09:36:03.030Z,2.06
2023-01-27T09:41:09.222Z,1.88
2023-01-27T09:46:15.321Z,1.90
2023-01-27T09:51:21.612Z,2.24
2023-01-27T09:56:27.673Z,2.04
2023-01-27T10:01:34.027Z,2.11
2023-01-27T10:06:40.381Z,3.14
2023-01-27T10:11:46.666Z,2.13
2023-01-27T10:16:52.753Z,2.10
2023-01-27T10:21:59.902Z,2.19
2023-01-27T10:27:04.790Z,1.90
2023-01-27T10:32:10.507Z,1.88
2023-01-27T10:37:16.656Z,1.75
2023-01-27T10:42:22.888Z,1.56
2023-01-27T10:47:28.923Z,1.63
2023-01-27T10:52:35.158Z,1.63
2023-01-27T10:57:41.291Z,1.74
2023-01-27T11:02:47.566Z,1.64
2023-01-27T11:07:53.635Z,1.88
2023-01-27T11:13:00.016Z,1.71
2023-01-27T11:18:06.153Z,1.55
2023-01-27T11:23:12.455Z,1.76
2023-01-27T11:28:18.602Z,1.53
2023-01-27T11:33:24.775Z,1.41
2023-01-27T11:38:30.858Z,1.54
2023-01-27T11:43:37.104Z,1.44
2023-01-27T11:48:43.268Z,1.46
2023-01-27T11:53:49.479Z,1.34
2023-01-27T11:58:55.604Z,1.43
2023-01-27T12:04:02.008Z,1.10
2023-01-27T12:10:15.418Z,1.20
2023-01-27T12:15:20.488Z,1.20
2023-01-27T12:20:26.620Z,1.16
2023-01-27T12:25:32.879Z,1.12
2023-01-27T12:30:39.004Z,1.10
2023-01-27T12:35:45.223Z,1.22
2023-01-27T12:40:51.317Z,1.27
2023-01-27T12:45:57.521Z,1.62
2023-01-27T12:51:03.643Z,1.11
2023-01-27T12:56:09.788Z,1.36
2023-01-27T13:01:15.859Z,1.70
2023-01-27T13:06:22.094Z,0.92
2023-01-27T13:11:28.180Z,1.32
2023-01-27T13:16:34.489Z,1.17
2023-01-27T13:21:40.529Z,1.18
2023-01-27T13:26:46.725Z,1.17
2023-01-27T13:31:52.946Z,1.17
2023-01-27T13:36:59.185Z,1.27
2023-01-27T13:42:05.249Z,1.38
2023-01-27T13:47:11.588Z,1.28
2023-01-27T13:52:17.775Z,1.31
2023-01-27T13:57:24.031Z,1.70
2023-01-27T14:02:30.145Z,3.39
2023-01-27T14:07:36.383Z,1.41
2023-01-27T14:12:42.645Z,1.67
2023-01-27T14:17:48.872Z,1.60
2023-01-27T14:22:54.941Z,1.49
2023-01-27T14:28:01.144Z,1.74
2023-01-27T14:33:07.279Z,1.82
2023-01-27T14:38:13.527Z,1.66
2023-01-27T14:43:19.609Z,1.54
2023-01-27T14:48:25.861Z,1.49
2023-01-27T14:53:31.994Z,1.56
2023-01-27T14:58:38.227Z,1.97
2023-01-27T15:03:44.286Z,1.67
2023-01-27T15:08:50.490Z,1.74
2023-01-27T15:13:56.747Z,1.63
2023-01-27T15:19:03.000Z,1.57
2023-01-27T15:24:09.095Z,1.80
2023-01-27T15:29:17.183Z,1.69
2023-01-27T15:34:23.339Z,1.60
2023-01-27T15:39:40.976Z,1.64
2023-01-27T15:44:35.370Z,1.69
2023-01-27T15:49:41.608Z,1.84
2023-01-27T15:54:47.796Z,1.68
2023-01-27T15:59:59.237Z,1.64
2023-01-27T16:04:59.673Z,1.54
2023-01-27T16:10:05.959Z,1.97
2023-01-27T16:15:12.447Z,1.73
2023-01-27T16:20:18.066Z,1.58
2023-01-27T16:25:24.243Z,1.51
2023-01-27T16:30:30.421Z,1.56
2023-01-27T16:35:36.544Z,1.81
2023-01-27T16:40:42.989Z,1.69
2023-01-27T16:45:49.170Z,1.75
2023-01-27T16:50:55.269Z,1.57
2023-01-27T16:56:01.437Z,2.12
2023-01-27T17:01:07.701Z,1.99
2023-01-27T17:06:13.738Z,1.84
2023-01-27T17:11:19.856Z,1.74
2023-01-27T17:16:26.004Z,1.69
2023-01-27T17:21:32.344Z,1.69
2023-01-27T17:26:38.490Z,1.72
2023-01-27T17:31:44.954Z,2.12
2023-01-27T17:36:50.851Z,2.11
2023-01-27T17:41:57.171Z,2.10
2023-01-27T17:47:03.377Z,2.46
2023-01-27T17:52:09.532Z,2.51
2023-01-27T17:57:15.673Z,2.94
2023-01-27T18:02:22.032Z,3.70
2023-01-27T18:07:28.082Z,3.54
2023-01-27T18:12:34.365Z,3.42
2023-01-27T18:17:40.520Z,3.60
2023-01-27T18:22:46.749Z,2.85
2023-01-27T18:27:52.850Z,2.47
2023-01-27T18:32:59.068Z,2.24
2023-01-27T18:38:05.249Z,2.25
2023-01-27T18:43:11.531Z,1.86
2023-01-27T18:48:17.630Z,2.15
2023-01-27T18:53:23.752Z,2.36
2023-01-27T18:58:32.828Z,2.59
2023-01-27T19:03:39.152Z,2.74
2023-01-27T19:08:45.306Z,3.14
2023-01-27T19:13:51.462Z,3.78
2023-01-27T19:18:57.656Z,3.43
2023-01-27T19:24:03.901Z,3.42
2023-01-27T19:29:10.040Z,3.30
2023-01-27T19:34:17.042Z,3.19
2023-01-27T19:39:23.188Z,3.17
2023-01-27T19:44:29.400Z,3.71
2023-01-27T19:49:35.541Z,3.43
2023-01-27T19:54:41.754Z,3.47
2023-01-27T19:59:47.903Z,3.41
2023-01-27T20:04:54.239Z,3.45
2023-01-27T20:10:01.192Z,3.24
2023-01-27T20:15:07.400Z,3.13
2023-01-27T20:20:13.589Z,3.41
2023-01-27T20:25:19.786Z,3.30
2023-01-27T20:30:25.916Z,3.36
2023-01-27T20:35:32.052Z,3.18
2023-01-27T20:40:38.198Z,3.64
2023-01-27T20:45:44.533Z,3.15
2023-01-27T20:50:50.578Z,3.29
2023-01-27T20:55:56.749Z,3.29
2023-01-27T21:01:03.162Z,3.09
2023-01-27T21:06:09.267Z,3.17
2023-01-27T21:11:15.335Z,3.11
2023-01-27T21:16:21.553Z,3.10
2023-01-27T21:21:27.670Z,3.96
2023-01-27T21:26:33.845Z,3.53
2023-01-27T21:31:39.994Z,3.52
2023-01-27T21:36:46.218Z,3.39
2023-01-27T21:41:52.389Z,3.44
2023-01-27T21:46:58.967Z,3.36
2023-01-27T21:52:05.019Z,3.77
2023-01-27T21:57:11.324Z,3.28
2023-01-27T22:02:17.381Z,4.10
2023-01-27T22:07:23.580Z,3.51
2023-01-27T22:12:29.696Z,3.52
2023-01-27T22:17:35.872Z,3.26
2023-01-27T22:22:42.041Z,3.41
2023-01-27T22:27:49.974Z,3.46
2023-01-27T22:32:56.094Z,3.43
2023-01-27T22:38:02.227Z,3.68
2023-01-27T22:43:08.407Z,3.26
2023-01-27T22:48:14.540Z,4.37
2023-01-27T22:53:20.742Z,3.88
2023-01-27T22:58:26.975Z,3.41
2023-01-27T23:03:33.157Z,3.60
2023-01-27T23:08:39.330Z,3.71
2023-01-27T23:13:45.421Z,3.42
2023-01-27T23:18:51.608Z,3.60
2023-01-27T23:23:57.814Z,3.71
2023-01-27T23:29:06.801Z,3.91
2023-01-27T23:34:09.711Z,3.93
2023-01-27T23:39:16.049Z,3.83
2023-01-27T23:44:22.174Z,4.02
2023-01-27T23:49:28.445Z,3.66
2023-01-27T23:54:34.527Z,3.39
2023-01-27T23:59:40.720Z,3.51
